createdAt,value
2019-01-04T00:00:40.907Z,2.83
2019-01-04T00:03:10.702Z,2.63
2019-01-04T00:05:40.586Z,2.74
2019-01-04T00:08:10.594Z,2.68
2019-01-04T00:10:40.174Z,2.75
2019-01-04T00:13:10.452Z,2.85
2019-01-04T00:15:40.176Z,2.91
2019-01-04T00:18:09.856Z,2.77
2019-01-04T00:20:39.639Z,2.68
2019-01-04T00:23:10.146Z,2.69
2019-01-04T00:25:40.001Z,2.63
2019-01-04T00:28:09.759Z,2.52
2019-01-04T00:30:39.470Z,2.67
2019-01-04T00:33:09.163Z,2.70
2019-01-04T00:35:39.338Z,2.61
2019-01-04T00:38:09.290Z,2.66
2019-01-04T00:40:39.231Z,2.52
2019-01-04T00:43:08.842Z,2.70
2019-01-04T00:45:38.613Z,2.61
2019-01-04T00:48:08.342Z,2.69
2019-01-04T00:50:38.046Z,2.69
2019-01-04T00:53:07.806Z,2.46
2019-01-04T00:55:50.763Z,2.63
2019-01-04T00:58:46.423Z,2.45
2019-01-04T01:01:51.978Z,2.39
2019-01-04T01:04:41.157Z,2.29
2019-01-04T01:07:45.572Z,2.29
2019-01-04T01:10:52.930Z,2.15
2019-01-04T01:13:42.343Z,1.88
2019-01-04T01:16:55.517Z,2.11
2019-01-04T01:19:48.802Z,1.89
2019-01-04T01:22:57.791Z,1.59
2019-01-04T01:25:40.785Z,1.70
2019-01-04T01:29:00.501Z,1.64
2019-01-04T01:32:00.469Z,1.37
2019-01-04T01:34:55.185Z,1.51
2019-01-04T01:37:53.516Z,1.43
2019-01-04T01:40:46.125Z,1.49
2019-01-04T01:44:02.841Z,1.39
2019-01-04T01:46:40.091Z,1.35
2019-01-04T01:49:31.417Z,1.53
2019-01-04T01:52:05.733Z,1.45
2019-01-04T01:54:35.392Z,1.45
2019-01-04T01:57:05.086Z,1.36
2019-01-04T01:59:34.907Z,1.38
2019-01-04T02:02:04.500Z,1.19
2019-01-04T02:04:34.079Z,1.41
2019-01-04T02:07:03.866Z,1.21
2019-01-04T02:09:33.441Z,1.17
2019-01-04T02:12:03.262Z,1.41
2019-01-04T02:14:33.009Z,1.41
2019-01-04T02:17:02.714Z,1.37
2019-01-04T02:19:32.498Z,1.40
2019-01-04T02:22:02.009Z,1.10
2019-01-04T02:24:31.901Z,1.10
2019-01-04T02:27:01.768Z,1.25
2019-01-04T02:29:31.669Z,1.34
2019-01-04T02:32:01.315Z,0.83
2019-01-04T02:34:31.492Z,0.80
2019-01-04T02:37:01.337Z,1.10
2019-01-04T02:39:31.153Z,1.13
2019-01-04T02:42:00.769Z,1.02
2019-01-04T02:44:30.917Z,1.20
2019-01-04T02:47:00.406Z,1.09
2019-01-04T02:49:30.346Z,1.00
2019-01-04T02:51:59.907Z,1.17
2019-01-04T02:54:30.340Z,0.73
2019-01-04T02:56:59.944Z,1.15
2019-01-04T02:59:29.558Z,1.03
2019-01-04T03:01:59.383Z,1.17
2019-01-04T03:04:29.081Z,1.18
2019-01-04T03:06:58.771Z,1.25
2019-01-04T03:09:28.467Z,1.32
2019-01-04T03:11:58.116Z,0.97
2019-01-04T03:14:27.761Z,1.16
2019-01-04T03:16:57.637Z,0.92
2019-01-04T03:19:27.279Z,0.99
2019-01-04T03:21:57.025Z,1.05
2019-01-04T03:24:26.576Z,1.11
2019-01-04T03:26:56.189Z,1.14
2019-01-04T03:29:25.890Z,1.20
2019-01-04T03:31:55.563Z,1.07
2019-01-04T03:34:25.044Z,1.20
2019-01-04T03:36:54.544Z,1.20
2019-01-04T03:39:24.044Z,1.23
2019-01-04T03:41:53.779Z,1.34
2019-01-04T03:44:23.339Z,1.38
2019-01-04T03:46:52.976Z,1.41
2019-01-04T03:49:22.689Z,1.44
2019-01-04T03:51:52.481Z,1.58
2019-01-04T03:54:21.968Z,1.64
2019-01-04T03:56:51.624Z,1.77
2019-01-04T03:59:21.285Z,1.56
2019-01-04T04:01:50.848Z,1.59
2019-01-04T04:04:20.643Z,1.67
2019-01-04T04:06:50.245Z,1.55
2019-01-04T04:09:20.206Z,1.76
2019-01-04T04:11:49.814Z,1.78
2019-01-04T04:14:19.445Z,1.78
2019-01-04T04:16:48.999Z,1.71
2019-01-04T04:19:18.611Z,1.77
2019-01-04T04:21:48.151Z,1.77
2019-01-04T04:24:17.752Z,1.55
2019-01-04T04:26:47.349Z,1.85
2019-01-04T04:29:17.081Z,1.73
2019-01-04T04:31:46.636Z,1.93
2019-01-04T04:34:16.254Z,1.83
2019-01-04T04:36:45.960Z,1.85
2019-01-04T04:39:15.616Z,1.78
2019-01-04T04:41:45.211Z,1.78
2019-01-04T04:44:14.960Z,1.98
2019-01-04T04:46:44.485Z,1.97
2019-01-04T04:49:14.106Z,1.72
2019-01-04T04:51:43.674Z,2.07
2019-01-04T04:54:13.345Z,1.93
2019-01-04T04:56:43.375Z,2.05
2019-01-04T04:59:13.160Z,1.82
2019-01-04T05:01:43.623Z,1.96
2019-01-04T05:04:13.236Z,2.03
2019-01-04T05:06:43.366Z,1.93
2019-01-04T05:09:13.155Z,1.96
2019-01-04T05:11:42.950Z,1.99
2019-01-04T05:14:12.603Z,1.75
2019-01-04T05:16:42.309Z,2.08
2019-01-04T05:19:11.818Z,1.88
2019-01-04T05:21:42.123Z,2.08
2019-01-04T05:24:11.780Z,2.02
2019-01-04T05:26:41.840Z,1.89
2019-01-04T05:29:11.438Z,1.89
2019-01-04T05:31:41.004Z,1.84
2019-01-04T05:34:10.716Z,1.84
2019-01-04T05:36:40.438Z,1.74
2019-01-04T05:39:09.981Z,1.85
2019-01-04T05:41:39.803Z,2.00
2019-01-04T05:44:09.379Z,2.02
2019-01-04T05:46:39.205Z,1.96
2019-01-04T05:49:08.893Z,2.08
2019-01-04T05:51:38.684Z,1.70
2019-01-04T05:54:08.442Z,2.02
2019-01-04T05:56:38.159Z,1.63
2019-01-04T05:59:07.798Z,1.89
2019-01-04T06:01:37.459Z,1.97
2019-01-04T06:04:07.397Z,2.03
2019-01-04T06:06:36.865Z,2.16
2019-01-04T06:09:08.472Z,2.01
2019-01-04T06:11:38.039Z,1.99
2019-01-04T06:14:07.743Z,2.05
2019-01-04T06:16:37.313Z,1.86
2019-01-04T06:19:06.919Z,1.73
2019-01-04T06:21:36.413Z,1.84
2019-01-04T06:24:06.107Z,1.92
2019-01-04T06:26:35.616Z,2.02
2019-01-04T06:29:05.208Z,2.03
2019-01-04T06:31:34.873Z,2.12
2019-01-04T06:34:04.502Z,2.14
2019-01-04T06:36:34.334Z,2.24
2019-01-04T06:39:05.765Z,2.21
2019-01-04T06:41:35.324Z,2.12
2019-01-04T06:44:05.264Z,2.04
2019-01-04T06:46:34.823Z,2.14
2019-01-04T06:49:04.429Z,1.86
2019-01-04T06:51:33.949Z,1.95
2019-01-04T06:54:03.533Z,2.26
2019-01-04T06:56:33.100Z,2.14
2019-01-04T06:59:02.660Z,2.14
2019-01-04T07:01:32.207Z,2.09
2019-01-04T07:04:01.930Z,2.25
2019-01-04T07:06:31.536Z,2.20
2019-01-04T07:09:01.084Z,2.35
2019-01-04T07:11:30.637Z,2.23
2019-01-04T07:14:00.453Z,2.33
2019-01-04T07:16:30.113Z,2.27
2019-01-04T07:19:00.003Z,2.27
2019-01-04T07:21:29.547Z,2.38
2019-01-04T07:23:59.291Z,2.38
2019-01-04T07:26:28.902Z,2.23
2019-01-04T07:28:58.387Z,2.24
2019-01-04T07:31:28.006Z,2.39
2019-01-04T07:33:57.628Z,2.35
2019-01-04T07:36:27.637Z,2.30
2019-01-04T07:38:57.578Z,2.36
2019-01-04T07:41:27.262Z,2.50
2019-01-04T07:43:56.933Z,2.40
2019-01-04T07:46:26.528Z,2.41
2019-01-04T07:48:56.498Z,2.33
2019-01-04T07:51:25.981Z,2.45
2019-01-04T07:53:56.219Z,2.61
2019-01-04T07:56:25.699Z,2.61
2019-01-04T07:58:55.864Z,2.41
2019-01-04T08:01:25.779Z,2.18
2019-01-04T08:03:55.776Z,2.32
2019-01-04T08:06:25.263Z,2.46
2019-01-04T08:08:55.623Z,2.62
2019-01-04T08:11:25.543Z,2.44
2019-01-04T08:13:55.511Z,2.46
2019-01-04T08:16:25.069Z,2.66
2019-01-04T08:18:55.823Z,2.37
2019-01-04T08:21:25.463Z,2.41
2019-01-04T08:23:56.297Z,2.59
2019-01-04T08:26:25.856Z,2.41
2019-01-04T08:28:56.127Z,2.81
2019-01-04T08:31:25.817Z,2.73
2019-01-04T08:33:55.533Z,2.94
2019-01-04T08:36:25.549Z,2.78
2019-01-04T08:38:55.148Z,2.94
2019-01-04T08:41:24.945Z,3.23
2019-01-04T08:43:54.623Z,2.93
2019-01-04T08:46:24.364Z,3.17
2019-01-04T08:48:54.293Z,3.34
2019-01-04T08:51:23.918Z,3.14
2019-01-04T08:53:59.149Z,3.28
2019-01-04T08:56:32.127Z,3.32
2019-01-04T08:59:01.967Z,3.07
2019-01-04T09:01:31.616Z,3.26
2019-01-04T09:04:01.693Z,3.40
2019-01-04T09:06:31.487Z,3.49
2019-01-04T09:09:01.417Z,3.65
2019-01-04T09:11:31.155Z,3.74
2019-01-04T09:14:01.347Z,3.73
2019-01-04T09:16:31.047Z,3.72
2019-01-04T09:19:01.104Z,3.76
2019-01-04T09:21:31.204Z,3.95
2019-01-04T09:24:01.489Z,3.87
2019-01-04T09:26:31.140Z,3.84
2019-01-04T09:29:01.429Z,3.64
2019-01-04T09:31:31.030Z,3.88
2019-01-04T09:34:01.071Z,4.17
2019-01-04T09:36:30.627Z,4.28
2019-01-04T09:39:03.316Z,4.29
2019-01-04T09:41:37.229Z,3.86
2019-01-04T09:44:06.956Z,4.31
2019-01-04T09:46:36.581Z,4.48
2019-01-04T09:49:06.563Z,4.49
2019-01-04T09:51:36.386Z,4.12
2019-01-04T09:54:06.352Z,4.62
2019-01-04T09:56:35.949Z,4.65
2019-01-04T09:59:06.018Z,4.69
2019-01-04T10:01:35.653Z,4.35
2019-01-04T10:04:05.871Z,4.38
2019-01-04T10:06:35.532Z,4.89
2019-01-04T10:09:07.456Z,4.78
2019-01-04T10:11:38.926Z,4.84
2019-01-04T10:14:08.851Z,4.72
2019-01-04T10:16:38.511Z,4.55
2019-01-04T10:19:08.589Z,4.20
2019-01-04T10:21:38.271Z,4.93
2019-01-04T10:24:08.138Z,4.74
2019-01-04T10:26:37.822Z,4.79
2019-01-04T10:29:08.023Z,5.08
2019-01-04T10:31:37.585Z,5.25
2019-01-04T10:34:07.260Z,5.30
2019-01-04T10:36:37.089Z,5.22
2019-01-04T10:39:08.465Z,4.72
2019-01-04T10:41:38.383Z,4.67
2019-01-04T10:44:08.522Z,5.19
2019-01-04T10:46:38.423Z,4.76
2019-01-04T10:49:08.096Z,4.86
2019-01-04T10:51:38.200Z,5.21
2019-01-04T10:54:08.606Z,5.49
2019-01-04T10:56:38.203Z,5.32
2019-01-04T10:59:08.625Z,5.01
2019-01-04T11:01:38.394Z,5.40
2019-01-04T11:04:08.131Z,4.95
2019-01-04T11:06:38.022Z,5.16
2019-01-04T11:09:09.791Z,5.09
2019-01-04T11:11:39.442Z,5.05
2019-01-04T11:14:09.641Z,5.15
2019-01-04T11:16:39.455Z,5.39
2019-01-04T11:19:09.465Z,5.12
2019-01-04T11:21:39.138Z,5.32
2019-01-04T11:24:21.515Z,5.31
2019-01-04T11:26:53.215Z,5.21
2019-01-04T11:29:45.190Z,5.26
2019-01-04T11:32:34.088Z,5.25
2019-01-04T11:35:32.025Z,5.36
2019-01-04T11:38:15.017Z,5.17
2019-01-04T11:40:58.282Z,5.31
2019-01-04T11:44:06.197Z,5.70
2019-01-04T11:46:55.340Z,5.61
2019-01-04T11:49:47.498Z,5.79
2019-01-04T11:52:24.514Z,5.86
2019-01-04T11:54:55.783Z,5.64
2019-01-04T11:57:25.449Z,5.52
2019-01-04T11:59:55.146Z,5.69
2019-01-04T12:02:26.414Z,5.11
2019-01-04T12:04:57.805Z,5.71
2019-01-04T12:07:27.566Z,5.24
2019-01-04T12:09:57.188Z,5.40
2019-01-04T12:12:27.176Z,5.74
2019-01-04T12:14:56.782Z,5.83
2019-01-04T12:17:29.638Z,5.44
2019-01-04T12:19:59.261Z,5.65
2019-01-04T12:22:30.053Z,5.85
2019-01-04T12:25:00.050Z,5.34
2019-01-04T12:27:29.587Z,5.27
2019-01-04T12:29:59.192Z,5.61
2019-01-04T12:32:28.957Z,5.69
2019-01-04T12:34:58.794Z,5.79
2019-01-04T12:37:28.557Z,5.83
2019-01-04T12:39:58.367Z,5.60
2019-01-04T12:42:27.960Z,5.29
2019-01-04T12:44:57.987Z,5.67
2019-01-04T12:47:28.058Z,5.67
2019-01-04T12:49:58.080Z,5.71
2019-01-04T12:52:27.821Z,5.54
2019-01-04T12:54:57.861Z,5.19
2019-01-04T12:57:27.622Z,5.11
2019-01-04T12:59:57.259Z,5.49
2019-01-04T13:02:27.024Z,5.09
2019-01-04T13:04:56.676Z,5.55
2019-01-04T13:07:26.469Z,5.49
2019-01-04T13:09:56.217Z,5.55
2019-01-04T13:12:25.862Z,5.63
2019-01-04T13:14:55.526Z,5.12
2019-01-04T13:17:25.329Z,5.50
2019-01-04T13:19:54.950Z,5.53
2019-01-04T13:22:24.884Z,5.31
2019-01-04T13:24:54.392Z,5.39
2019-01-04T13:27:24.158Z,5.10
2019-01-04T13:29:53.740Z,5.40
2019-01-04T13:32:23.721Z,5.66
2019-01-04T13:34:53.431Z,5.15
2019-01-04T13:37:23.427Z,5.46
2019-01-04T13:39:53.162Z,5.49
2019-01-04T13:42:22.964Z,5.35
2019-01-04T13:44:52.596Z,5.64
2019-01-04T13:47:22.474Z,5.56
2019-01-04T13:49:52.160Z,4.96
2019-01-04T13:52:22.117Z,5.41
2019-01-04T13:54:51.791Z,5.14
2019-01-04T13:57:21.916Z,5.11
2019-01-04T13:59:51.431Z,4.95
2019-01-04T14:02:21.621Z,4.83
2019-01-04T14:04:51.657Z,4.97
2019-01-04T14:07:21.501Z,5.20
2019-01-04T14:09:51.256Z,5.12
2019-01-04T14:12:20.880Z,5.09
2019-01-04T14:14:50.427Z,5.06
2019-01-04T14:17:20.341Z,5.42
2019-01-04T14:19:49.946Z,5.52
2019-01-04T14:22:19.668Z,5.12
2019-01-04T14:24:49.326Z,5.04
2019-01-04T14:27:19.085Z,5.15
2019-01-04T14:29:48.760Z,5.35
2019-01-04T14:32:18.630Z,5.01
2019-01-04T14:34:48.740Z,5.03
2019-01-04T14:37:18.599Z,5.04
2019-01-04T14:39:58.950Z,5.53
2019-01-04T14:42:28.599Z,5.62
2019-01-04T14:44:58.290Z,5.19
2019-01-04T14:47:28.184Z,4.96
2019-01-04T14:49:58.006Z,5.12
2019-01-04T14:52:28.299Z,5.40
2019-01-04T14:54:58.001Z,5.64
2019-01-04T14:57:27.985Z,5.53
2019-01-04T14:59:57.957Z,5.64
2019-01-04T15:02:28.129Z,5.36
2019-01-04T15:04:57.925Z,5.56
2019-01-04T15:07:28.246Z,5.19
2019-01-04T15:09:57.883Z,5.25
2019-01-04T15:12:28.145Z,5.60
2019-01-04T15:14:57.773Z,5.29
2019-01-04T15:17:28.465Z,5.35
2019-01-04T15:19:58.408Z,5.39
2019-01-04T15:22:28.472Z,5.17
2019-01-04T15:24:58.223Z,5.23
2019-01-04T15:27:28.750Z,5.34
2019-01-04T15:29:58.340Z,5.26
2019-01-04T15:32:28.315Z,5.28
2019-01-04T15:34:58.000Z,5.13
2019-01-04T15:37:27.937Z,5.33
2019-01-04T15:39:57.692Z,5.55
2019-01-04T15:42:27.426Z,5.71
2019-01-04T15:44:56.919Z,5.40
2019-01-04T15:47:26.797Z,5.59
2019-01-04T15:49:56.546Z,5.60
2019-01-04T15:52:26.810Z,6.22
2019-01-04T15:54:56.394Z,6.26
2019-01-04T15:57:26.264Z,5.90
2019-01-04T15:59:55.872Z,5.48
2019-01-04T16:02:25.808Z,5.56
2019-01-04T16:04:55.486Z,5.94
2019-01-04T16:07:25.434Z,6.16
2019-01-04T16:09:55.224Z,6.24
2019-01-04T16:12:24.944Z,5.85
2019-01-04T16:14:54.743Z,6.04
2019-01-04T16:17:24.338Z,5.99
2019-01-04T16:19:53.933Z,6.03
2019-01-04T16:22:23.763Z,6.29
2019-01-04T16:24:53.353Z,6.12
2019-01-04T16:27:23.121Z,5.93
2019-01-04T16:29:52.932Z,6.14
2019-01-04T16:32:22.427Z,6.08
2019-01-04T16:34:52.413Z,6.00
2019-01-04T16:37:21.909Z,6.15
2019-01-04T16:39:51.728Z,5.92
2019-01-04T16:42:21.480Z,5.76
2019-01-04T16:44:51.188Z,6.00
2019-01-04T16:47:20.843Z,5.62
2019-01-04T16:49:50.509Z,6.29
2019-01-04T16:52:20.245Z,6.02
2019-01-04T16:54:50.035Z,5.58
2019-01-04T16:57:19.561Z,5.75
2019-01-04T16:59:49.435Z,5.33
2019-01-04T17:02:19.056Z,5.42
2019-01-04T17:04:48.914Z,5.58
2019-01-04T17:07:18.415Z,5.84
2019-01-04T17:09:48.218Z,5.25
2019-01-04T17:12:17.938Z,5.35
2019-01-04T17:14:47.918Z,5.34
2019-01-04T17:17:17.809Z,5.48
2019-01-04T17:19:47.628Z,5.53
2019-01-04T17:22:17.263Z,5.63
2019-01-04T17:24:46.890Z,5.45
2019-01-04T17:27:16.574Z,5.53
2019-01-04T17:29:46.166Z,5.36
2019-01-04T17:32:15.702Z,5.42
2019-01-04T17:34:45.310Z,5.42
2019-01-04T17:37:15.094Z,5.63
2019-01-04T17:39:44.673Z,5.61
2019-01-04T17:42:14.400Z,5.74
2019-01-04T17:44:44.022Z,5.65
2019-01-04T17:47:13.784Z,5.78
2019-01-04T17:49:43.618Z,5.55
2019-01-04T17:52:13.334Z,5.68
2019-01-04T17:54:43.378Z,5.45
2019-01-04T17:57:13.272Z,5.57
2019-01-04T17:59:43.270Z,5.82
2019-01-04T18:02:13.030Z,5.53
2019-01-04T18:04:42.748Z,5.50
2019-01-04T18:07:13.051Z,5.64
2019-01-04T18:09:43.254Z,5.52
2019-01-04T18:12:12.934Z,5.57
2019-01-04T18:14:42.598Z,5.45
2019-01-04T18:17:12.192Z,5.55
2019-01-04T18:19:42.000Z,5.65
2019-01-04T18:22:11.947Z,5.48
2019-01-04T18:24:41.527Z,5.61
2019-01-04T18:27:11.314Z,5.80
2019-01-04T18:29:41.053Z,5.95
2019-01-04T18:32:10.662Z,5.53
2019-01-04T18:34:40.729Z,5.90
2019-01-04T18:37:10.561Z,5.93
2019-01-04T18:39:40.145Z,6.25
2019-01-04T18:42:09.983Z,5.53
2019-01-04T18:44:39.594Z,5.71
2019-01-04T18:47:09.289Z,5.76
2019-01-04T18:49:38.962Z,6.15
2019-01-04T18:52:09.177Z,6.10
2019-01-04T18:54:39.367Z,5.86
2019-01-04T18:57:09.154Z,6.09
2019-01-04T18:59:38.904Z,5.91
2019-01-04T19:02:08.577Z,5.87
2019-01-04T19:04:39.169Z,6.08
2019-01-04T19:07:08.978Z,6.02
2019-01-04T19:09:38.978Z,6.13
2019-01-04T19:12:08.593Z,6.08
2019-01-04T19:14:39.565Z,6.17
2019-01-04T19:17:09.237Z,5.98
2019-01-04T19:19:38.909Z,6.25
2019-01-04T19:22:08.846Z,6.43
2019-01-04T19:24:38.767Z,6.21
2019-01-04T19:27:08.713Z,6.20
2019-01-04T19:29:38.430Z,6.38
2019-01-04T19:32:08.109Z,6.16
2019-01-04T19:34:37.744Z,5.93
2019-01-04T19:37:07.442Z,6.11
2019-01-04T19:39:37.144Z,5.90
2019-01-04T19:42:07.218Z,5.98
2019-01-04T19:44:36.786Z,6.44
2019-01-04T19:47:06.398Z,6.16
2019-01-04T19:49:36.033Z,6.06
2019-01-04T19:52:05.843Z,6.40
2019-01-04T19:54:35.533Z,6.32
2019-01-04T19:57:05.470Z,6.21
2019-01-04T19:59:34.968Z,6.33
2019-01-04T20:02:04.753Z,6.25
2019-01-04T20:04:34.423Z,6.60
2019-01-04T20:07:22.457Z,6.52
2019-01-04T20:10:46.622Z,6.23
2019-01-04T20:13:53.532Z,6.39
2019-01-04T20:16:32.967Z,6.45
2019-01-04T20:19:04.999Z,6.51
2019-01-04T20:21:36.414Z,6.22
2019-01-04T20:24:23.745Z,6.13
2019-01-04T20:26:57.747Z,6.36
2019-01-04T20:29:44.892Z,6.04
2019-01-04T20:32:32.169Z,6.36
2019-01-04T20:35:15.254Z,6.06
2019-01-04T20:38:01.870Z,6.29
2019-01-04T20:40:49.709Z,6.26
2019-01-04T20:43:27.275Z,6.62
2019-01-04T20:46:13.753Z,6.62
2019-01-04T20:49:01.426Z,6.31
2019-01-04T20:51:32.562Z,6.35
2019-01-04T20:54:03.739Z,6.58
2019-01-04T20:56:47.377Z,6.83
2019-01-04T20:59:35.133Z,6.90
2019-01-04T21:02:16.056Z,6.67
2019-01-04T21:05:03.573Z,6.65
2019-01-04T21:07:43.129Z,6.51
2019-01-04T21:10:31.306Z,6.66
2019-01-04T21:13:18.310Z,6.77
2019-01-04T21:16:04.908Z,6.97
2019-01-04T21:18:52.786Z,6.81
2019-01-04T21:21:24.197Z,6.80
2019-01-04T21:24:01.925Z,6.43
2019-01-04T21:26:39.212Z,6.79
2019-01-04T21:29:26.481Z,6.93
2019-01-04T21:32:03.197Z,6.80
2019-01-04T21:34:40.625Z,6.94
2019-01-04T21:37:14.637Z,6.67
2019-01-04T21:39:53.162Z,6.66
2019-01-04T21:42:40.662Z,6.80
2019-01-04T21:45:23.753Z,6.74
2019-01-04T21:47:53.136Z,6.70
2019-01-04T21:50:39.812Z,6.70
2019-01-04T21:53:11.070Z,6.97
2019-01-04T21:55:52.880Z,6.62
2019-01-04T21:58:40.696Z,6.52
2019-01-04T22:01:21.298Z,6.92
2019-01-04T22:04:08.696Z,6.61
2019-01-04T22:06:40.141Z,6.48
2019-01-04T22:09:11.748Z,6.34
2019-01-04T22:11:55.201Z,6.56
2019-01-04T22:14:41.691Z,6.42
2019-01-04T22:17:27.836Z,6.46
2019-01-04T22:20:15.179Z,6.77
2019-01-04T22:23:02.407Z,6.82
2019-01-04T22:25:50.106Z,6.53
2019-01-04T22:28:21.335Z,6.68
2019-01-04T22:30:58.670Z,6.66
2019-01-04T22:33:41.731Z,6.96
2019-01-04T22:36:13.282Z,7.07
2019-01-04T22:38:44.609Z,6.56
2019-01-04T22:41:21.447Z,6.64
2019-01-04T22:43:57.145Z,6.68
2019-01-04T22:46:34.445Z,6.60
2019-01-04T22:49:06.502Z,6.59
2019-01-04T22:51:53.885Z,6.74
2019-01-04T22:54:41.572Z,6.82
2019-01-04T22:57:29.188Z,6.89
2019-01-04T23:00:00.504Z,6.93
2019-01-04T23:02:43.772Z,6.88
2019-01-04T23:05:31.752Z,6.74
2019-01-04T23:08:15.456Z,6.74
2019-01-04T23:11:03.414Z,6.70
2019-01-04T23:13:40.980Z,6.27
2019-01-04T23:16:29.165Z,6.26
2019-01-04T23:19:00.458Z,6.16
2019-01-04T23:22:08.527Z,6.40
2019-01-04T23:24:44.257Z,6.20
2019-01-04T23:27:15.716Z,6.27
2019-01-04T23:29:59.014Z,6.58
2019-01-04T23:32:30.327Z,6.34
2019-01-04T23:35:02.924Z,6.62
2019-01-04T23:37:50.220Z,6.43
2019-01-04T23:40:40.001Z,6.19
2019-01-04T23:43:20.498Z,6.45
2019-01-04T23:46:08.402Z,6.34
2019-01-04T23:48:42.350Z,6.11
2019-01-04T23:51:22.934Z,6.22
2019-01-04T23:54:00.475Z,6.43
2019-01-04T23:56:47.861Z,6.93
2019-01-04T23:59:35.294Z,7.04
